Time;durP1;ratioP1;P1;durP2;ratioP2;P2;SDS_P1;SDS_P2;PMS_P1;PMS_P2;Temp;Humidity;BMP_temperature;BMP_pressure;BME280_temperature;BME280_humidity;BME280_pressure;Samples;Min_cycle;Max_cycle;Signal;HPM_P1;HPM_P2
2023/12/09 00:00:55;;;;;;;20.25;11.48;;;;;;;;;;4979874;28;20069;-77
2023/12/09 00:03:20;;;;;;;20.63;13.07;;;;;;;;;;4974607;28;20027;-77
2023/12/09 00:05:45;;;;;;;21.10;12.68;;;;;;;;;;4980945;28;20031;-77
2023/12/09 00:08:11;;;;;;;19.55;12.93;;;;;;;;;;4981116;28;20129;-77
2023/12/09 00:10:36;;;;;;;23.26;14.48;;;;;;;;;;4982720;28;20088;-77
2023/12/09 00:13:01;;;;;;;21.52;12.85;;;;;;;;;;4978865;28;20065;-77
2023/12/09 00:15:26;;;;;;;18.95;11.93;;;;;;;;;;4992417;28;20032;-77
2023/12/09 00:17:51;;;;;;;19.80;11.85;;;;;;;;;;4997009;28;20027;-77
2023/12/09 00:20:16;;;;;;;18.42;11.10;;;;;;;;;;4976419;28;20038;-77
2023/12/09 00:22:42;;;;;;;21.33;12.45;;;;;;;;;;4989621;28;20038;-77
2023/12/09 00:25:07;;;;;;;20.55;13.75;;;;;;;;;;4982815;28;20064;-77
2023/12/09 00:27:32;;;;;;;20.85;13.07;;;;;;;;;;5001575;28;20039;-77
2023/12/09 00:29:57;;;;;;;22.77;14.25;;;;;;;;;;4976743;28;20034;-77
2023/12/09 00:32:23;;;;;;;19.13;12.25;;;;;;;;;;5013964;28;20050;-77
2023/12/09 00:34:48;;;;;;;18.95;11.98;;;;;;;;;;4992591;28;20037;-77
2023/12/09 00:37:13;;;;;;;19.98;12.50;;;;;;;;;;4978660;28;20402;-77
2023/12/09 00:39:38;;;;;;;21.90;13.82;;;;;;;;;;4979583;28;20051;-77
2023/12/09 00:42:03;;;;;;;21.33;12.55;;;;;;;;;;4974913;28;20038;-78
2023/12/09 00:44:29;;;;;;;19.10;11.77;;;;;;;;;;4995538;28;20137;-77
2023/12/09 00:46:54;;;;;;;18.75;11.40;;;;;;;;;;4994175;28;20466;-78
2023/12/09 00:49:19;;;;;;;20.30;12.88;;;;;;;;;;4990198;28;21869;-77
2023/12/09 00:51:44;;;;;;;22.63;13.15;;;;;;;;;;4986460;28;20039;-77
2023/12/09 00:54:09;;;;;;;18.83;12.32;;;;;;;;;;4980702;28;20023;-78
2023/12/09 00:56:34;;;;;;;17.90;11.50;;;;;;;;;;5018786;28;20028;-77
2023/12/09 00:59:00;;;;;;;18.35;11.38;;;;;;;;;;4997319;28;20403;-77
2023/12/09 01:01:25;;;;;;;25.10;13.55;;;;;;;;;;5005803;28;20051;-77
2023/12/09 01:03:50;;;;;;;20.70;12.35;;;;;;;;;;4991094;28;20026;-77
2023/12/09 01:06:16;;;;;;;18.60;11.13;;;;;;;;;;4992188;28;20030;-77
2023/12/09 01:08:41;;;;;;;20.20;12.35;;;;;;;;;;4980480;28;20092;-77
2023/12/09 01:11:06;;;;;;;17.63;11.60;;;;;;;;;;4999717;28;20437;-77
2023/12/09 01:13:32;;;;;;;22.48;12.43;;;;;;;;;;4989687;28;20020;-77
2023/12/09 01:15:57;;;;;;;18.33;11.10;;;;;;;;;;4981532;28;20034;-77
2023/12/09 01:18:22;;;;;;;17.60;10.40;;;;;;;;;;4989155;28;20034;-77
2023/12/09 01:20:47;;;;;;;21.02;11.15;;;;;;;;;;4985104;28;20042;-77
2023/12/09 01:23:13;;;;;;;18.98;11.15;;;;;;;;;;4978852;28;20113;-77
2023/12/09 01:25:38;;;;;;;19.45;12.70;;;;;;;;;;4976091;28;20043;-77
2023/12/09 01:28:03;;;;;;;19.90;13.30;;;;;;;;;;4975258;28;20029;-77
2023/12/09 01:30:28;;;;;;;19.77;11.02;;;;;;;;;;4979840;28;20064;-77
2023/12/09 01:32:53;;;;;;;18.80;10.55;;;;;;;;;;4992207;28;20407;-76
2023/12/09 01:35:19;;;;;;;16.52;10.57;;;;;;;;;;4994438;28;20030;-77
2023/12/09 01:37:44;;;;;;;17.20;11.60;;;;;;;;;;4980041;28;20398;-77
2023/12/09 01:40:13;;;;;;;17.98;10.45;;;;;;;;;;4997057;28;20069;-77
2023/12/09 01:42:39;;;;;;;21.25;13.05;;;;;;;;;;4973607;28;20027;-77
2023/12/09 01:45:05;;;;;;;21.20;12.60;;;;;;;;;;4979389;28;20460;-77
2023/12/09 01:47:30;;;;;;;20.48;12.27;;;;;;;;;;4978407;28;20030;-77
2023/12/09 01:49:55;;;;;;;17.42;11.07;;;;;;;;;;4986627;28;20030;-77
2023/12/09 01:52:20;;;;;;;17.23;11.23;;;;;;;;;;4996707;28;20529;-76
2023/12/09 01:54:46;;;;;;;15.50;10.32;;;;;;;;;;4996955;28;20022;-77
2023/12/09 01:57:11;;;;;;;17.23;10.82;;;;;;;;;;5002156;28;20034;-77
2023/12/09 01:59:36;;;;;;;18.20;11.00;;;;;;;;;;4975223;28;20097;-77
2023/12/09 02:02:01;;;;;;;17.83;11.55;;;;;;;;;;4979711;28;20398;-78
2023/12/09 02:04:27;;;;;;;17.98;11.02;;;;;;;;;;4981396;28;20116;-77
2023/12/09 02:06:52;;;;;;;19.95;12.05;;;;;;;;;;4971226;28;20033;-78
2023/12/09 02:09:18;;;;;;;18.25;11.70;;;;;;;;;;4974073;28;20100;-77
2023/12/09 02:11:50;;;;;;;16.90;10.73;;;;;;;;;;4982965;28;20105;-77
2023/12/09 02:14:20;;;;;;;18.85;11.55;;;;;;;;;;4977420;28;20442;-77
2023/12/09 02:16:45;;;;;;;18.20;10.80;;;;;;;;;;4978368;28;20072;-77
2023/12/09 02:19:12;;;;;;;19.00;11.10;;;;;;;;;;4973727;28;20031;-77
2023/12/09 02:21:55;;;;;;;18.38;11.85;;;;;;;;;;4971635;28;20453;-77
2023/12/09 02:24:20;;;;;;;17.17;10.15;;;;;;;;;;4974622;28;20413;-77
2023/12/09 02:26:45;;;;;;;16.52;10.52;;;;;;;;;;4975021;28;20107;-77
2023/12/09 02:29:11;;;;;;;16.63;10.85;;;;;;;;;;4978173;28;20038;-77
2023/12/09 02:31:38;;;;;;;18.95;10.52;;;;;;;;;;4976922;28;20403;-77
2023/12/09 02:34:05;;;;;;;17.05;10.85;;;;;;;;;;4973687;28;20055;-77
2023/12/09 02:36:30;;;;;;;16.45;10.65;;;;;;;;;;4972157;28;20027;-78
2023/12/09 02:38:56;;;;;;;16.90;10.57;;;;;;;;;;4974746;28;20501;-77
2023/12/09 02:41:22;;;;;;;16.73;9.40;;;;;;;;;;4985133;28;20034;-77
2023/12/09 02:43:47;;;;;;;19.08;11.55;;;;;;;;;;4984430;28;20061;-77
2023/12/09 02:46:13;;;;;;;16.13;9.32;;;;;;;;;;4975410;28;20172;-78
2023/12/09 02:48:39;;;;;;;18.60;11.10;;;;;;;;;;4974723;28;20022;-78
2023/12/09 02:51:04;;;;;;;15.68;9.93;;;;;;;;;;4981990;28;20034;-77
2023/12/09 02:53:29;;;;;;;16.95;10.65;;;;;;;;;;4987567;28;20024;-77
2023/12/09 02:55:54;;;;;;;17.67;9.88;;;;;;;;;;4989357;28;20121;-77
2023/12/09 02:58:19;;;;;;;17.67;10.48;;;;;;;;;;4978811;28;20046;-78
2023/12/09 03:00:45;;;;;;;19.33;11.48;;;;;;;;;;4980611;28;20061;-77
2023/12/09 03:03:10;;;;;;;15.90;10.98;;;;;;;;;;4981917;28;20034;-78
2023/12/09 03:05:35;;;;;;;16.78;9.98;;;;;;;;;;4981376;28;20034;-77
2023/12/09 03:08:00;;;;;;;16.00;9.32;;;;;;;;;;4984149;28;20031;-77
2023/12/09 03:10:25;;;;;;;15.80;10.20;;;;;;;;;;4979922;28;20027;-77
2023/12/09 03:12:50;;;;;;;14.60;9.00;;;;;;;;;;4982089;28;20109;-78
2023/12/09 03:15:16;;;;;;;18.88;10.35;;;;;;;;;;4980667;28;20038;-77
2023/12/09 03:17:42;;;;;;;18.13;10.93;;;;;;;;;;4975945;28;20019;-77
2023/12/09 03:20:10;;;;;;;16.27;9.55;;;;;;;;;;4979348;28;20485;-78
2023/12/09 03:22:36;;;;;;;15.05;9.40;;;;;;;;;;4979196;28;20035;-78
2023/12/09 03:25:01;;;;;;;15.57;9.70;;;;;;;;;;4982181;28;20041;-77
2023/12/09 03:27:26;;;;;;;13.90;8.30;;;;;;;;;;4980057;28;20505;-77
2023/12/09 03:29:51;;;;;;;17.02;10.43;;;;;;;;;;4973360;28;20038;-77
2023/12/09 03:32:16;;;;;;;18.63;10.73;;;;;;;;;;4985837;28;20104;-78
2023/12/09 03:34:44;;;;;;;14.75;8.90;;;;;;;;;;4976421;28;20094;-77
2023/12/09 03:37:10;;;;;;;16.50;9.52;;;;;;;;;;4984680;28;20041;-77
2023/12/09 03:39:35;;;;;;;16.73;9.40;;;;;;;;;;4978500;28;20027;-77
2023/12/09 03:42:00;;;;;;;16.23;10.05;;;;;;;;;;4979781;28;20073;-78
2023/12/09 03:44:25;;;;;;;16.05;9.20;;;;;;;;;;4975208;28;20414;-77
2023/12/09 03:46:50;;;;;;;16.88;10.25;;;;;;;;;;4974942;28;20063;-77
2023/12/09 03:49:16;;;;;;;14.65;9.13;;;;;;;;;;4978138;28;20113;-77
2023/12/09 03:51:41;;;;;;;16.33;9.43;;;;;;;;;;4977666;28;20039;-77
2023/12/09 03:54:06;;;;;;;15.60;9.95;;;;;;;;;;4982067;28;20030;-77
2023/12/09 03:56:31;;;;;;;13.60;8.25;;;;;;;;;;4976387;28;20439;-77
2023/12/09 03:58:56;;;;;;;14.20;8.73;;;;;;;;;;4973931;28;20041;-77
2023/12/09 04:01:24;;;;;;;17.08;10.07;;;;;;;;;;4982663;28;20430;-77
2023/12/09 04:03:49;;;;;;;16.05;10.50;;;;;;;;;;4977112;28;20086;-77
2023/12/09 04:06:15;;;;;;;16.00;10.25;;;;;;;;;;4979666;28;20070;-78
2023/12/09 04:08:40;;;;;;;15.07;9.65;;;;;;;;;;4979306;28;20031;-77
2023/12/09 04:11:05;;;;;;;14.15;8.50;;;;;;;;;;4979955;28;20074;-77
2023/12/09 04:13:30;;;;;;;16.13;9.80;;;;;;;;;;4974236;28;20026;-77
2023/12/09 04:15:56;;;;;;;13.95;8.88;;;;;;;;;;4975974;28;20026;-78
2023/12/09 04:18:21;;;;;;;14.88;9.02;;;;;;;;;;4977977;28;20045;-77
2023/12/09 04:20:46;;;;;;;15.25;9.45;;;;;;;;;;4978806;28;20034;-77
2023/12/09 04:23:11;;;;;;;14.52;9.43;;;;;;;;;;4980228;28;20063;-77
2023/12/09 04:25:36;;;;;;;17.50;10.40;;;;;;;;;;4977372;28;20456;-77
2023/12/09 04:28:01;;;;;;;17.23;10.80;;;;;;;;;;4977813;28;20038;-77
2023/12/09 04:30:27;;;;;;;14.63;9.20;;;;;;;;;;4986236;28;20107;-77
2023/12/09 04:32:52;;;;;;;15.43;8.73;;;;;;;;;;4977848;28;20058;-77
2023/12/09 04:35:17;;;;;;;16.92;9.68;;;;;;;;;;4982900;28;20544;-77
2023/12/09 04:37:43;;;;;;;16.88;9.55;;;;;;;;;;4977374;28;20037;-77
2023/12/09 04:40:11;;;;;;;16.15;9.80;;;;;;;;;;4978609;28;20034;-78
2023/12/09 04:42:37;;;;;;;18.02;11.43;;;;;;;;;;4976151;28;20034;-77
2023/12/09 04:45:03;;;;;;;16.90;9.98;;;;;;;;;;4980352;28;20066;-77
2023/12/09 04:47:28;;;;;;;16.80;9.52;;;;;;;;;;4977893;28;20063;-77
2023/12/09 04:49:53;;;;;;;14.00;9.15;;;;;;;;;;4981043;28;20031;-77
2023/12/09 04:52:18;;;;;;;14.30;8.77;;;;;;;;;;4976999;28;20422;-78
2023/12/09 04:54:44;;;;;;;16.05;9.63;;;;;;;;;;4983900;28;20030;-76
2023/12/09 04:57:09;;;;;;;16.38;9.65;;;;;;;;;;4980378;28;20102;-76
2023/12/09 04:59:34;;;;;;;17.23;10.23;;;;;;;;;;4987859;28;20034;-76
2023/12/09 05:01:59;;;;;;;14.90;9.05;;;;;;;;;;4980487;28;20115;-76
2023/12/09 05:04:24;;;;;;;12.65;8.02;;;;;;;;;;4985589;28;20038;-75
2023/12/09 05:06:49;;;;;;;15.20;8.45;;;;;;;;;;4977257;28;20062;-77
2023/12/09 05:09:15;;;;;;;14.77;8.48;;;;;;;;;;4979138;28;20035;-76
2023/12/09 05:11:40;;;;;;;12.98;8.05;;;;;;;;;;4978481;28;20498;-76
2023/12/09 05:14:05;;;;;;;16.55;9.93;;;;;;;;;;4980158;28;20038;-74
2023/12/09 05:16:31;;;;;;;15.60;9.88;;;;;;;;;;4981293;28;20069;-76
2023/12/09 05:18:56;;;;;;;14.65;8.88;;;;;;;;;;4982323;28;20548;-76
2023/12/09 05:21:22;;;;;;;16.88;9.00;;;;;;;;;;4990980;28;20080;-76
2023/12/09 05:23:47;;;;;;;16.05;9.63;;;;;;;;;;4973624;28;20027;-76
2023/12/09 05:26:22;;;;;;;17.60;10.95;;;;;;;;;;4976303;28;20491;-76
2023/12/09 05:28:47;;;;;;;17.50;10.52;;;;;;;;;;4976704;28;20121;-76
2023/12/09 05:31:13;;;;;;;13.98;8.73;;;;;;;;;;4980083;28;20117;-75
2023/12/09 05:33:39;;;;;;;14.40;8.50;;;;;;;;;;4974496;28;20046;-76
2023/12/09 05:36:04;;;;;;;15.77;9.23;;;;;;;;;;4973029;28;20031;-76
2023/12/09 05:38:30;;;;;;;15.98;8.88;;;;;;;;;;4973561;28;20023;-76
2023/12/09 05:40:55;;;;;;;15.90;9.68;;;;;;;;;;4979647;28;20066;-75
2023/12/09 05:43:20;;;;;;;17.30;9.80;;;;;;;;;;4984067;28;20038;-76
2023/12/09 05:45:46;;;;;;;16.20;9.70;;;;;;;;;;4992587;28;20402;-76
2023/12/09 05:48:11;;;;;;;14.93;9.00;;;;;;;;;;4973687;28;20165;-75
2023/12/09 05:50:36;;;;;;;16.15;9.77;;;;;;;;;;4972731;28;20027;-78
2023/12/09 05:53:01;;;;;;;16.55;9.55;;;;;;;;;;4985627;28;20037;-77
2023/12/09 05:55:26;;;;;;;15.45;8.60;;;;;;;;;;4976768;28;20019;-76
2023/12/09 05:57:52;;;;;;;14.38;8.30;;;;;;;;;;4977398;28;20523;-76
2023/12/09 06:00:17;;;;;;;17.52;9.48;;;;;;;;;;4978314;28;20018;-75
2023/12/09 06:02:42;;;;;;;13.75;8.13;;;;;;;;;;4977927;28;20486;-76
2023/12/09 06:05:08;;;;;;;16.23;9.23;;;;;;;;;;4998758;28;20034;-76
2023/12/09 06:07:33;;;;;;;15.43;8.60;;;;;;;;;;4978463;28;20105;-76
2023/12/09 06:09:58;;;;;;;16.73;9.20;;;;;;;;;;4980780;28;20018;-76
2023/12/09 06:12:24;;;;;;;16.42;9.00;;;;;;;;;;4977517;28;20526;-76
2023/12/09 06:14:49;;;;;;;18.00;9.60;;;;;;;;;;4977822;28;20037;-76
2023/12/09 06:17:14;;;;;;;17.42;9.68;;;;;;;;;;4971937;28;20046;-76
2023/12/09 06:19:40;;;;;;;12.95;7.97;;;;;;;;;;4975273;28;20498;-76
2023/12/09 06:22:05;;;;;;;16.10;9.52;;;;;;;;;;4976049;28;20130;-76
2023/12/09 06:24:31;;;;;;;19.02;10.55;;;;;;;;;;4982134;28;20102;-76
2023/12/09 06:26:56;;;;;;;18.10;11.00;;;;;;;;;;4989139;28;20405;-76
2023/12/09 06:29:21;;;;;;;15.73;8.70;;;;;;;;;;4975846;28;20176;-76
2023/12/09 06:31:46;;;;;;;16.52;9.85;;;;;;;;;;4971010;28;20616;-76
2023/12/09 06:34:11;;;;;;;15.18;9.35;;;;;;;;;;4974356;28;20045;-76
2023/12/09 06:36:37;;;;;;;17.85;8.90;;;;;;;;;;4974171;28;20039;-76
2023/12/09 06:39:02;;;;;;;16.27;9.75;;;;;;;;;;4979959;28;20132;-76
2023/12/09 06:41:27;;;;;;;14.88;8.80;;;;;;;;;;4982554;28;20122;-77
2023/12/09 06:43:52;;;;;;;19.30;10.30;;;;;;;;;;4983301;28;20035;-77
2023/12/09 06:46:17;;;;;;;15.65;9.50;;;;;;;;;;4981214;28;20033;-75
2023/12/09 06:48:42;;;;;;;14.77;8.85;;;;;;;;;;4978599;28;20038;-77
2023/12/09 06:51:14;;;;;;;17.85;9.73;;;;;;;;;;4980118;28;20054;-75
2023/12/09 06:53:40;;;;;;;16.65;9.27;;;;;;;;;;4975878;28;20034;-77
2023/12/09 06:56:06;;;;;;;16.98;10.18;;;;;;;;;;4981098;28;20030;-76
2023/12/09 06:58:31;;;;;;;16.38;9.63;;;;;;;;;;4983366;28;20022;-76
2023/12/09 07:00:56;;;;;;;18.75;9.95;;;;;;;;;;4977856;28;20516;-76
2023/12/09 07:03:21;;;;;;;17.77;10.23;;;;;;;;;;4979646;28;20022;-75
2023/12/09 07:05:47;;;;;;;20.50;10.73;;;;;;;;;;4986233;28;20030;-76
2023/12/09 07:08:12;;;;;;;16.33;9.77;;;;;;;;;;4974972;28;20399;-76
2023/12/09 07:10:37;;;;;;;18.48;10.75;;;;;;;;;;4985151;28;20038;-76
2023/12/09 07:13:04;;;;;;;18.08;10.52;;;;;;;;;;4978349;28;20058;-76
2023/12/09 07:15:29;;;;;;;17.38;10.13;;;;;;;;;;4985034;28;20491;-76
2023/12/09 07:17:55;;;;;;;19.27;11.05;;;;;;;;;;4976831;28;20071;-76
2023/12/09 07:20:20;;;;;;;17.48;10.27;;;;;;;;;;4976087;28;20039;-76
2023/12/09 07:22:45;;;;;;;19.48;10.90;;;;;;;;;;4978373;28;20046;-74
2023/12/09 07:25:10;;;;;;;20.33;11.98;;;;;;;;;;4985788;28;20041;-76
2023/12/09 07:27:36;;;;;;;19.10;10.82;;;;;;;;;;4978349;28;20023;-76
2023/12/09 07:30:01;;;;;;;20.35;11.32;;;;;;;;;;4979579;28;20054;-76
2023/12/09 07:32:27;;;;;;;19.08;10.05;;;;;;;;;;4976482;28;20064;-75
2023/12/09 07:34:52;;;;;;;18.25;10.90;;;;;;;;;;4985987;28;20094;-76
2023/12/09 07:37:17;;;;;;;21.08;11.75;;;;;;;;;;4978293;28;20384;-76
2023/12/09 07:39:42;;;;;;;19.95;10.85;;;;;;;;;;4971292;28;20418;-76
2023/12/09 07:42:08;;;;;;;20.00;10.85;;;;;;;;;;4974882;28;20639;-76
2023/12/09 07:44:33;;;;;;;17.80;10.35;;;;;;;;;;4993765;28;20065;-76
2023/12/09 07:46:58;;;;;;;18.73;10.52;;;;;;;;;;4978923;28;20038;-76
2023/12/09 07:49:23;;;;;;;20.20;11.27;;;;;;;;;;4979813;28;20030;-76
2023/12/09 07:51:48;;;;;;;19.10;11.40;;;;;;;;;;4980028;28;20035;-77
2023/12/09 07:54:13;;;;;;;19.55;10.73;;;;;;;;;;5004653;28;20097;-76
2023/12/09 07:56:39;;;;;;;20.08;11.27;;;;;;;;;;4981669;28;20440;-76
2023/12/09 07:59:04;;;;;;;17.13;9.32;;;;;;;;;;4982887;28;20095;-76
2023/12/09 08:01:29;;;;;;;18.60;10.48;;;;;;;;;;4983359;28;20042;-76
2023/12/09 08:03:54;;;;;;;18.55;10.80;;;;;;;;;;4980425;28;20038;-76
2023/12/09 08:06:19;;;;;;;18.98;10.82;;;;;;;;;;4979125;28;20046;-76
2023/12/09 08:08:44;;;;;;;18.38;10.90;;;;;;;;;;4976437;28;20030;-76
2023/12/09 08:11:10;;;;;;;17.55;10.23;;;;;;;;;;4979772;28;20046;-76
2023/12/09 08:13:35;;;;;;;17.10;10.00;;;;;;;;;;4977565;28;20478;-76
2023/12/09 08:16:00;;;;;;;18.67;11.05;;;;;;;;;;4980911;28;20109;-76
2023/12/09 08:18:26;;;;;;;16.45;9.18;;;;;;;;;;4979325;28;20612;-76
2023/12/09 08:20:51;;;;;;;17.80;10.93;;;;;;;;;;4981982;28;20039;-75
2023/12/09 08:23:17;;;;;;;15.48;9.80;;;;;;;;;;4982842;28;20034;-76
2023/12/09 08:25:43;;;;;;;16.83;9.95;;;;;;;;;;4977371;28;20035;-76
2023/12/09 08:28:09;;;;;;;18.05;9.73;;;;;;;;;;4985440;28;20099;-77
2023/12/09 08:30:34;;;;;;;17.80;10.13;;;;;;;;;;4989843;28;20031;-76
2023/12/09 08:32:59;;;;;;;14.98;8.38;;;;;;;;;;4981147;28;20061;-76
2023/12/09 08:35:24;;;;;;;15.70;9.10;;;;;;;;;;4973585;28;20034;-76
2023/12/09 08:37:50;;;;;;;17.70;9.90;;;;;;;;;;4980965;28;20113;-77
2023/12/09 08:40:15;;;;;;;19.52;10.43;;;;;;;;;;4982179;28;20084;-76
2023/12/09 08:42:43;;;;;;;19.38;10.55;;;;;;;;;;4976031;28;20483;-76
2023/12/09 08:45:12;;;;;;;19.52;11.18;;;;;;;;;;4980806;28;20039;-76
2023/12/09 08:47:37;;;;;;;23.40;10.98;;;;;;;;;;4978377;28;20022;-76
2023/12/09 08:50:04;;;;;;;21.23;11.77;;;;;;;;;;4972162;28;20054;-77
2023/12/09 08:52:29;;;;;;;22.85;11.73;;;;;;;;;;4981286;28;20624;-76
2023/12/09 08:54:55;;;;;;;19.80;10.98;;;;;;;;;;4977263;28;20026;-77
2023/12/09 08:57:20;;;;;;;19.38;10.95;;;;;;;;;;4978219;28;20031;-76
2023/12/09 08:59:45;;;;;;;20.40;11.57;;;;;;;;;;4978288;28;20106;-77
2023/12/09 09:02:10;;;;;;;19.10;11.48;;;;;;;;;;4975255;28;20039;-76
2023/12/09 09:04:35;;;;;;;17.88;10.57;;;;;;;;;;4972521;28;20088;-76
2023/12/09 09:07:01;;;;;;;23.17;12.93;;;;;;;;;;4975867;28;20062;-76
2023/12/09 09:09:26;;;;;;;24.27;12.93;;;;;;;;;;4978855;28;20038;-76
2023/12/09 09:11:51;;;;;;;19.83;11.88;;;;;;;;;;4977338;28;20077;-76
2023/12/09 09:14:16;;;;;;;19.25;11.45;;;;;;;;;;4984826;28;20026;-76
2023/12/09 09:16:42;;;;;;;23.08;12.38;;;;;;;;;;4978988;28;20392;-76
2023/12/09 09:19:07;;;;;;;23.30;12.82;;;;;;;;;;4980085;28;20085;-76
2023/12/09 09:21:32;;;;;;;21.58;11.45;;;;;;;;;;4993881;28;20121;-76
2023/12/09 09:23:57;;;;;;;20.20;10.80;;;;;;;;;;4985887;28;20042;-77
2023/12/09 09:26:23;;;;;;;21.50;11.82;;;;;;;;;;4987117;28;20030;-76
2023/12/09 09:28:48;;;;;;;21.70;11.52;;;;;;;;;;5007076;28;20484;-76
2023/12/09 09:31:13;;;;;;;16.60;9.93;;;;;;;;;;4977519;28;20043;-76
2023/12/09 09:33:40;;;;;;;20.88;10.68;;;;;;;;;;5000020;28;20046;-76
2023/12/09 09:36:05;;;;;;;17.73;10.15;;;;;;;;;;4977722;28;20039;-76
2023/12/09 09:38:30;;;;;;;21.50;11.82;;;;;;;;;;4980057;28;20041;-76
2023/12/09 09:40:56;;;;;;;21.98;12.65;;;;;;;;;;4980639;28;20035;-77
2023/12/09 09:43:24;;;;;;;19.00;11.00;;;;;;;;;;4994586;28;20084;-76
2023/12/09 09:45:52;;;;;;;23.77;12.10;;;;;;;;;;4986464;28;20042;-76
2023/12/09 09:48:18;;;;;;;19.85;10.95;;;;;;;;;;4982970;28;20099;-76
2023/12/09 09:50:44;;;;;;;20.05;11.52;;;;;;;;;;4981433;28;20661;-76
2023/12/09 09:53:11;;;;;;;19.65;11.07;;;;;;;;;;4980988;28;20124;-76
2023/12/09 09:55:39;;;;;;;24.38;11.95;;;;;;;;;;4981717;28;20078;-76
2023/12/09 09:58:05;;;;;;;22.83;12.18;;;;;;;;;;4981318;28;20429;-76
2023/12/09 10:00:30;;;;;;;23.08;11.50;;;;;;;;;;4978065;28;20042;-77
2023/12/09 10:02:55;;;;;;;23.30;12.20;;;;;;;;;;4972832;28;20047;-76
2023/12/09 10:05:21;;;;;;;20.70;11.75;;;;;;;;;;4977055;28;20478;-76
2023/12/09 10:07:46;;;;;;;20.02;11.23;;;;;;;;;;4976237;28;20027;-76
2023/12/09 10:10:13;;;;;;;21.33;12.05;;;;;;;;;;4982236;28;20030;-75
2023/12/09 10:12:38;;;;;;;20.20;11.82;;;;;;;;;;4976736;28;20059;-76
2023/12/09 10:15:04;;;;;;;23.15;13.07;;;;;;;;;;4972628;28;20067;-76
2023/12/09 10:17:30;;;;;;;22.33;11.15;;;;;;;;;;4974049;28;20046;-76
2023/12/09 10:19:55;;;;;;;19.83;10.90;;;;;;;;;;4975510;28;20031;-76
2023/12/09 10:22:21;;;;;;;21.83;11.32;;;;;;;;;;4984578;28;20121;-76
2023/12/09 10:24:50;;;;;;;20.13;10.73;;;;;;;;;;4980396;28;20551;-75
2023/12/09 10:27:16;;;;;;;20.52;11.38;;;;;;;;;;4975451;28;20038;-76
2023/12/09 10:29:41;;;;;;;19.73;11.40;;;;;;;;;;4981175;28;20410;-76
2023/12/09 10:32:06;;;;;;;20.50;10.93;;;;;;;;;;4982246;28;20026;-76
2023/12/09 10:34:32;;;;;;;22.13;10.90;;;;;;;;;;4986984;28;20031;-76
2023/12/09 10:36:57;;;;;;;20.70;11.32;;;;;;;;;;4982135;28;20026;-76
2023/12/09 10:39:22;;;;;;;20.77;11.18;;;;;;;;;;4974837;28;20081;-76
2023/12/09 10:41:47;;;;;;;23.90;11.55;;;;;;;;;;4988313;28;20030;-76
2023/12/09 10:44:12;;;;;;;19.55;10.00;;;;;;;;;;4979594;28;20031;-76
2023/12/09 10:46:38;;;;;;;19.67;11.60;;;;;;;;;;4973729;28;20030;-76
2023/12/09 10:49:03;;;;;;;20.38;9.95;;;;;;;;;;4978342;28;20043;-77
2023/12/09 10:51:28;;;;;;;16.80;11.07;;;;;;;;;;4980749;28;20045;-78
2023/12/09 10:53:54;;;;;;;20.80;10.98;;;;;;;;;;4981660;28;20027;-77
2023/12/09 10:56:20;;;;;;;18.25;10.60;;;;;;;;;;4979299;28;20160;-77
2023/12/09 10:58:45;;;;;;;20.10;11.25;;;;;;;;;;4973734;28;20413;-77
2023/12/09 11:01:11;;;;;;;20.42;10.68;;;;;;;;;;4975928;28;20084;-77
2023/12/09 11:03:37;;;;;;;20.15;10.43;;;;;;;;;;4974294;28;20029;-77
2023/12/09 11:06:04;;;;;;;18.15;10.00;;;;;;;;;;4980250;28;20030;-78
2023/12/09 11:08:29;;;;;;;20.15;10.13;;;;;;;;;;4979631;28;20039;-77
2023/12/09 11:10:55;;;;;;;18.30;9.60;;;;;;;;;;4984168;28;20410;-77
2023/12/09 11:13:23;;;;;;;20.10;10.73;;;;;;;;;;4976798;28;20030;-77
2023/12/09 11:15:49;;;;;;;20.05;10.40;;;;;;;;;;4976164;28;20030;-77
2023/12/09 11:18:17;;;;;;;19.85;10.40;;;;;;;;;;4985250;28;20494;-77
2023/12/09 11:20:44;;;;;;;19.85;11.70;;;;;;;;;;4988462;28;20031;-77
2023/12/09 11:23:10;;;;;;;21.65;11.48;;;;;;;;;;4980482;28;20119;-77
2023/12/09 11:25:38;;;;;;;17.33;9.90;;;;;;;;;;4985371;28;20058;-77
2023/12/09 11:28:03;;;;;;;18.00;10.52;;;;;;;;;;4980967;28;20038;-77
2023/12/09 11:30:36;;;;;;;18.02;10.30;;;;;;;;;;4976752;28;20404;-77
2023/12/09 11:33:02;;;;;;;16.15;9.43;;;;;;;;;;4981329;28;20027;-77
2023/12/09 11:35:28;;;;;;;18.13;10.65;;;;;;;;;;4977839;28;20398;-77
2023/12/09 11:37:54;;;;;;;23.35;11.63;;;;;;;;;;4973832;28;20027;-77
2023/12/09 11:40:20;;;;;;;17.48;10.07;;;;;;;;;;4980867;28;20050;-76
2023/12/09 11:42:45;;;;;;;19.98;10.98;;;;;;;;;;4978762;28;20660;-77
2023/12/09 11:45:11;;;;;;;18.95;10.75;;;;;;;;;;4980818;28;20084;-76
2023/12/09 11:47:36;;;;;;;19.80;11.55;;;;;;;;;;4979344;28;20035;-77
2023/12/09 11:50:01;;;;;;;19.45;9.82;;;;;;;;;;4976369;28;20035;-77
2023/12/09 11:52:27;;;;;;;20.80;11.07;;;;;;;;;;4974840;28;20083;-77
2023/12/09 11:55:02;;;;;;;16.60;8.95;;;;;;;;;;4976954;28;20035;-77
2023/12/09 11:57:27;;;;;;;14.45;8.75;;;;;;;;;;4976918;28;20121;-77
2023/12/09 11:59:53;;;;;;;18.02;10.23;;;;;;;;;;4979293;28;20110;-76
2023/12/09 12:02:19;;;;;;;17.65;9.13;;;;;;;;;;4978606;28;20062;-77
2023/12/09 12:04:44;;;;;;;17.48;9.07;;;;;;;;;;4975995;28;20030;-76
2023/12/09 12:07:09;;;;;;;19.17;10.35;;;;;;;;;;4975549;28;20045;-77
2023/12/09 12:09:35;;;;;;;18.80;11.10;;;;;;;;;;4977066;28;20106;-76
2023/12/09 12:12:00;;;;;;;16.90;10.85;;;;;;;;;;4981846;28;20038;-76
2023/12/09 12:14:25;;;;;;;18.55;9.75;;;;;;;;;;4985117;28;20034;-77
2023/12/09 12:16:50;;;;;;;14.90;9.27;;;;;;;;;;4975881;28;20082;-77
2023/12/09 12:19:16;;;;;;;18.13;9.45;;;;;;;;;;4974218;28;20486;-77
2023/12/09 12:21:41;;;;;;;14.32;7.95;;;;;;;;;;4974745;28;20057;-77
2023/12/09 12:24:08;;;;;;;15.45;8.13;;;;;;;;;;4977823;28;20038;-77
2023/12/09 12:26:33;;;;;;;15.52;8.55;;;;;;;;;;4979811;28;20035;-77
2023/12/09 12:28:58;;;;;;;13.30;7.93;;;;;;;;;;4979862;28;20471;-77
2023/12/09 12:31:24;;;;;;;17.27;8.63;;;;;;;;;;4975276;28;20041;-76
2023/12/09 12:33:49;;;;;;;15.45;9.10;;;;;;;;;;4979479;28;20494;-76
2023/12/09 12:36:14;;;;;;;21.75;10.63;;;;;;;;;;4978329;28;20039;-76
2023/12/09 12:38:39;;;;;;;16.15;8.52;;;;;;;;;;4986319;28;20110;-76
2023/12/09 12:41:05;;;;;;;13.95;8.52;;;;;;;;;;4978773;28;20084;-76
2023/12/09 12:43:31;;;;;;;16.05;8.68;;;;;;;;;;4979897;28;20034;-77
2023/12/09 12:45:57;;;;;;;15.70;8.50;;;;;;;;;;4974966;28;20092;-77
2023/12/09 12:48:22;;;;;;;15.20;7.78;;;;;;;;;;4974955;28;20081;-76
2023/12/09 12:50:50;;;;;;;15.65;9.05;;;;;;;;;;4974758;28;20030;-76
2023/12/09 12:53:19;;;;;;;14.52;8.05;;;;;;;;;;4978960;28;20034;-76
2023/12/09 12:55:44;;;;;;;14.18;9.10;;;;;;;;;;4977693;28;20035;-76
2023/12/09 12:58:10;;;;;;;17.92;8.45;;;;;;;;;;4978604;28;20023;-77
2023/12/09 13:00:35;;;;;;;15.55;8.80;;;;;;;;;;4981304;28;20479;-76
2023/12/09 13:03:00;;;;;;;18.88;9.55;;;;;;;;;;4973655;28;20080;-76
2023/12/09 13:05:26;;;;;;;15.68;8.55;;;;;;;;;;4976060;28;20437;-76
2023/12/09 13:07:51;;;;;;;15.38;8.60;;;;;;;;;;4976415;28;20023;-77
2023/12/09 13:10:17;;;;;;;19.15;9.23;;;;;;;;;;4979274;28;20533;-76
2023/12/09 13:12:42;;;;;;;19.90;10.30;;;;;;;;;;4975157;28;20601;-76
2023/12/09 13:15:08;;;;;;;18.20;9.52;;;;;;;;;;4974657;28;20507;-77
2023/12/09 13:17:34;;;;;;;17.52;10.07;;;;;;;;;;4974693;28;20080;-77
2023/12/09 13:19:59;;;;;;;17.15;10.45;;;;;;;;;;4977132;28;20030;-77
2023/12/09 13:22:25;;;;;;;19.77;10.77;;;;;;;;;;4978823;28;20502;-77
2023/12/09 13:24:51;;;;;;;21.88;12.15;;;;;;;;;;4979870;28;20483;-77
2023/12/09 13:27:16;;;;;;;20.27;11.15;;;;;;;;;;4999558;28;20053;-77
2023/12/09 13:29:43;;;;;;;20.90;10.75;;;;;;;;;;4972991;28;20031;-77
2023/12/09 13:32:08;;;;;;;21.33;11.45;;;;;;;;;;4975052;28;20039;-77
2023/12/09 13:34:33;;;;;;;22.85;10.88;;;;;;;;;;5003583;28;20022;-76
2023/12/09 13:36:58;;;;;;;18.40;10.23;;;;;;;;;;4989535;28;20059;-77
2023/12/09 13:39:25;;;;;;;19.92;11.45;;;;;;;;;;4976673;28;20089;-76
2023/12/09 13:41:51;;;;;;;19.20;10.35;;;;;;;;;;4992698;28;20107;-77
2023/12/09 13:44:16;;;;;;;18.90;10.60;;;;;;;;;;4995785;28;20141;-77
2023/12/09 13:46:41;;;;;;;21.33;11.07;;;;;;;;;;4986994;28;20031;-77
2023/12/09 13:49:06;;;;;;;19.83;11.55;;;;;;;;;;5000789;28;20458;-77
2023/12/09 13:51:32;;;;;;;20.85;12.52;;;;;;;;;;4988570;28;20113;-77
2023/12/09 13:53:57;;;;;;;20.25;11.07;;;;;;;;;;4976224;28;20035;-77
2023/12/09 13:56:22;;;;;;;21.33;11.50;;;;;;;;;;4974069;28;20140;-77
2023/12/09 13:58:47;;;;;;;20.92;11.38;;;;;;;;;;5007925;28;20016;-77
2023/12/09 14:01:13;;;;;;;23.08;11.95;;;;;;;;;;4991925;28;20038;-77
2023/12/09 14:03:38;;;;;;;19.10;10.02;;;;;;;;;;4995300;28;20086;-76
2023/12/09 14:06:03;;;;;;;29.50;12.18;;;;;;;;;;4992715;28;20041;-77
2023/12/09 14:08:29;;;;;;;21.67;11.15;;;;;;;;;;5006830;28;20034;-76
2023/12/09 14:10:54;;;;;;;21.02;12.10;;;;;;;;;;4999222;28;20118;-77